Time;durP1;ratioP1;P1;durP2;ratioP2;P2;SDS_P1;SDS_P2;PMS_P1;PMS_P2;Temp;Humidity;BMP_temperature;BMP_pressure;BME280_temperature;BME280_humidity;BME280_pressure;Samples;Min_cycle;Max_cycle;Signal;HPM_P1;HPM_P2
2023/01/05 00:01:05;;;;;;;;;;;;;;;26.76;48.84;97759.64;613494;231;64948;-72
2023/01/05 00:03:32;;;;;;;;;;;;;;;26.77;46.99;97757.75;613449;231;66377;-70
2023/01/05 00:06:02;;;;;;;;;;;;;;;26.75;48.90;97755.33;613481;231;66619;-71
2023/01/05 00:08:29;;;;;;;;;;;;;;;26.75;49.44;97763.41;613173;230;62782;-71
2023/01/05 00:24:44;;;;;;;;;;;;;;;26.69;48.53;97751.10;613467;231;65127;-73
2023/01/05 00:27:12;;;;;;;;;;;;;;;26.68;49.39;97754.91;613387;231;68707;-71
2023/01/05 00:29:39;;;;;;;;;;;;;;;26.66;48.59;97748.20;613462;231;66717;-71
2023/01/05 00:32:07;;;;;;;;;;;;;;;26.65;49.58;97750.06;613462;231;64816;-72
2023/01/05 00:34:34;;;;;;;;;;;;;;;26.65;48.38;97738.48;613518;231;68599;-73
2023/01/05 00:37:02;;;;;;;;;;;;;;;26.65;49.55;97747.37;613490;231;67969;-73
2023/01/05 00:39:29;;;;;;;;;;;;;;;26.65;48.92;97744.67;613473;231;65075;-73
2023/01/05 00:41:57;;;;;;;;;;;;;;;26.63;48.66;97740.66;613440;231;68505;-73
2023/01/05 00:44:24;;;;;;;;;;;;;;;26.62;48.61;97741.77;613453;231;68626;-73
2023/01/05 00:46:52;;;;;;;;;;;;;;;26.62;49.13;97734.47;613498;231;64984;-73
2023/01/05 00:49:19;;;;;;;;;;;;;;;26.61;49.20;97735.58;613527;231;66095;-73
2023/01/05 00:51:47;;;;;;;;;;;;;;;26.60;48.20;97731.29;613477;231;68329;-73
2023/01/05 00:54:14;;;;;;;;;;;;;;;26.61;48.97;97732.88;613475;231;62722;-73
2023/01/05 00:56:42;;;;;;;;;;;;;;;26.61;48.81;97732.09;613470;231;68444;-73
2023/01/05 00:59:10;;;;;;;;;;;;;;;26.59;49.59;97737.75;613455;231;69458;-73
2023/01/05 01:01:37;;;;;;;;;;;;;;;26.58;49.47;97738.06;613517;231;64851;-73
2023/01/05 01:04:05;;;;;;;;;;;;;;;26.56;49.85;97727.55;613443;231;68510;-73
2023/01/05 01:06:32;;;;;;;;;;;;;;;26.55;49.76;97729.45;613465;231;68512;-73
2023/01/05 01:09:00;;;;;;;;;;;;;;;26.55;50.39;97726.76;613406;231;63085;-73
2023/01/05 01:11:27;;;;;;;;;;;;;;;26.56;50.31;97730.25;613452;231;68878;-73
2023/01/05 01:13:55;;;;;;;;;;;;;;;26.55;48.17;97737.54;613512;231;68492;-73
2023/01/05 01:16:23;;;;;;;;;;;;;;;26.54;49.54;97725.13;613463;231;62407;-73
2023/01/05 01:18:51;;;;;;;;;;;;;;;26.53;50.45;97720.84;613475;231;67696;-73
2023/01/05 01:21:20;;;;;;;;;;;;;;;26.51;50.12;97716.84;613410;231;69084;-73
2023/01/05 01:23:48;;;;;;;;;;;;;;;26.51;50.12;97711.45;613461;231;64943;-73
2023/01/05 01:26:15;;;;;;;;;;;;;;;26.50;48.78;97710.62;613525;231;68604;-73
2023/01/05 01:28:44;;;;;;;;;;;;;;;26.51;48.90;97706.05;613393;231;68368;-73
2023/01/05 01:31:12;;;;;;;;;;;;;;;26.49;49.44;97703.64;613465;231;65005;-73
2023/01/05 01:33:39;;;;;;;;;;;;;;;26.50;49.56;97709.83;613418;231;68654;-73
2023/01/05 01:36:09;;;;;;;;;;;;;;;26.48;49.54;97703.91;613426;231;68717;-73
2023/01/05 01:38:37;;;;;;;;;;;;;;;26.47;50.23;97702.32;613430;231;64651;-73
2023/01/05 01:41:05;;;;;;;;;;;;;;;26.45;50.17;97691.81;613496;231;69117;-72
2023/01/05 01:43:41;;;;;;;;;;;;;;;26.45;49.48;97691.81;613422;231;66118;-72
2023/01/05 01:46:09;;;;;;;;;;;;;;;26.45;48.74;97693.72;613455;231;64745;-72
2023/01/05 01:48:38;;;;;;;;;;;;;;;26.43;49.46;97685.11;613432;231;66502;-72
2023/01/05 01:51:07;;;;;;;;;;;;;;;26.42;50.44;97686.22;613481;231;67793;-71
2023/01/05 01:53:36;;;;;;;;;;;;;;;26.41;50.09;97680.03;613532;231;64876;-71
2023/01/05 01:56:05;;;;;;;;;;;;;;;26.42;49.55;97678.13;613475;231;68891;-71
2023/01/05 01:58:33;;;;;;;;;;;;;;;26.41;50.26;97671.12;613433;231;68795;-71
2023/01/05 02:01:02;;;;;;;;;;;;;;;26.40;49.50;97672.22;613429;231;64928;-71
2023/01/05 02:03:31;;;;;;;;;;;;;;;26.39;50.65;97670.63;613483;231;66347;-71
2023/01/05 02:05:59;;;;;;;;;;;;;;;26.37;49.37;97672.81;613449;231;68991;-72
2023/01/05 02:08:33;;;;;;;;;;;;;;;26.37;51.37;97667.42;613512;231;65031;-71
2023/01/05 02:11:05;;;;;;;;;;;;;;;26.37;49.30;97670.11;613484;231;68365;-72
2023/01/05 02:13:34;;;;;;;;;;;;;;;26.34;49.53;97661.51;613425;231;66228;-71
2023/01/05 02:16:04;;;;;;;;;;;;;;;26.35;49.35;97656.91;613325;230;62647;-71
2023/01/05 02:18:51;;;;;;;;;;;;;;;26.34;50.15;97658.02;613483;231;68664;-72
2023/01/05 02:21:24;;;;;;;;;;;;;;;26.32;49.93;97644.82;613441;231;66167;-71
2023/01/05 02:24:03;;;;;;;;;;;;;;;26.31;48.62;97635.15;600217;230;64882;-71
2023/01/05 02:26:33;;;;;;;;;;;;;;;26.31;50.48;97629.76;613439;231;69102;-71
2023/01/05 02:29:18;;;;;;;;;;;;;;;26.31;48.82;97628.97;606236;233;68301;-71
2023/01/05 02:31:47;;;;;;;;;;;;;;;26.29;51.27;97621.16;606614;234;65126;-71
2023/01/05 02:34:17;;;;;;;;;;;;;;;26.29;49.14;97612.28;606514;233;68321;-71
2023/01/05 02:36:49;;;;;;;;;;;;;;;26.27;50.34;97604.50;606474;233;66118;-71
2023/01/05 02:39:18;;;;;;;;;;;;;;;26.27;49.67;97598.29;606626;234;65628;-73
2023/01/05 02:41:54;;;;;;;;;;;;;;;26.25;48.67;97600.50;606632;234;68923;-73
2023/01/05 02:44:22;;;;;;;;;;;;;;;26.24;49.63;97593.48;606576;234;69106;-73
2023/01/05 02:47:05;;;;;;;;;;;;;;;26.24;49.86;97582.71;606612;234;44001;-73
2023/01/05 02:49:34;;;;;;;;;;;;;;;26.23;49.36;97581.91;605915;234;68408;-73
2023/01/05 02:52:03;;;;;;;;;;;;;;;26.22;50.30;97574.94;606506;233;68350;-72
2023/01/05 02:54:44;;;;;;;;;;;;;;;26.22;50.70;97574.11;606625;234;64894;-71
2023/01/05 02:57:17;;;;;;;;;;;;;;;26.21;49.98;97564.44;606586;234;66190;-71
2023/01/05 02:59:46;;;;;;;;;;;;;;;26.20;49.69;97569.03;606363;233;66474;-71
2023/01/05 03:02:26;;;;;;;;;;;;;;;26.18;49.68;97552.35;606607;234;62831;-71
2023/01/05 03:04:55;;;;;;;;;;;;;;;26.18;50.55;97557.73;606620;234;68950;-71
2023/01/05 03:07:24;;;;;;;;;;;;;;;26.18;49.15;97563.13;606619;234;65498;-71
2023/01/05 03:09:52;;;;;;;;;;;;;;;26.17;49.35;97556.15;606641;234;62329;-71
2023/01/05 03:15:19;;;;;;;;;;;;;;;26.16;49.90;97561.81;606406;234;69078;-71
2023/01/05 03:17:49;;;;;;;;;;;;;;;26.13;50.07;97555.11;605977;233;62592;-71
2023/01/05 03:20:19;;;;;;;;;;;;;;;26.13;51.83;97560.50;605938;234;68753;-71
2023/01/05 03:37:05;;;;;;;;;;;;;;;26.08;51.25;97547.10;615641;230;68640;-72
2023/01/05 03:39:33;;;;;;;;;;;;;;;26.06;50.77;97550.11;614585;230;66181;-72
2023/01/05 03:42:03;;;;;;;;;;;;;;;26.05;51.26;97545.80;614653;230;65198;-72
2023/01/05 03:44:30;;;;;;;;;;;;;;;26.05;50.36;97536.92;615641;230;66610;-72
2023/01/05 03:46:58;;;;;;;;;;;;;;;26.04;50.00;97529.94;615670;230;68849;-72
2023/01/05 03:49:26;;;;;;;;;;;;;;;26.03;51.86;97523.76;615682;230;65647;-72
2023/01/05 03:51:53;;;;;;;;;;;;;;;26.02;51.19;97526.73;615636;230;68444;-72
2023/01/05 03:54:21;;;;;;;;;;;;;;;26.03;50.37;97533.73;615658;228;68915;-71
2023/01/05 03:56:48;;;;;;;;;;;;;;;26.00;51.10;97521.65;615650;230;65075;-71
2023/01/05 03:59:17;;;;;;;;;;;;;;;26.01;50.54;97519.75;615654;230;68674;-72
2023/01/05 04:01:44;;;;;;;;;;;;;;;25.99;49.97;97514.64;615673;230;66133;-72
2023/01/05 04:04:13;;;;;;;;;;;;;;;25.99;51.15;97522.72;615651;230;65660;-72
2023/01/05 04:06:41;;;;;;;;;;;;;;;26.00;52.17;97518.13;615639;230;66147;-72
2023/01/05 04:09:09;;;;;;;;;;;;;;;25.98;50.36;97510.36;615645;230;68802;-72
2023/01/05 04:11:38;;;;;;;;;;;;;;;25.98;52.18;97512.27;615639;230;65701;-72
2023/01/05 04:14:06;;;;;;;;;;;;;;;25.97;50.31;97502.56;615680;230;65656;-72
2023/01/05 04:16:34;;;;;;;;;;;;;;;25.96;52.19;97495.59;615613;230;68695;-72
2023/01/05 04:19:03;;;;;;;;;;;;;;;25.95;51.14;97494.00;615512;230;42847;-72
2023/01/05 04:21:31;;;;;;;;;;;;;;;25.94;51.40;97498.56;615620;230;66114;-72
2023/01/05 04:23:58;;;;;;;;;;;;;;;25.94;50.92;97495.86;615675;230;66051;-72
2023/01/05 04:26:26;;;;;;;;;;;;;;;25.94;51.03;97497.77;615685;230;64879;-72
2023/01/05 04:28:53;;;;;;;;;;;;;;;25.93;50.98;97501.56;615570;230;68566;-72
2023/01/05 04:31:23;;;;;;;;;;;;;;;25.91;49.99;97496.45;615651;230;47084;-72
2023/01/05 04:33:51;;;;;;;;;;;;;;;25.90;51.01;97482.19;615650;230;65549;-72
2023/01/05 04:36:20;;;;;;;;;;;;;;;25.90;51.98;97476.80;615604;230;68777;-72
2023/01/05 04:38:48;;;;;;;;;;;;;;;25.89;51.27;97475.22;615645;230;69040;-72
2023/01/05 04:41:15;;;;;;;;;;;;;;;25.89;52.57;97479.78;615693;230;62697;-73
2023/01/05 04:43:44;;;;;;;;;;;;;;;25.88;52.38;97462.83;615616;228;44045;-73
2023/01/05 04:46:13;;;;;;;;;;;;;;;25.86;52.35;97456.95;615657;230;68027;-73
2023/01/05 04:48:41;;;;;;;;;;;;;;;25.87;51.69;97452.37;615690;230;62818;-72
2023/01/05 04:51:09;;;;;;;;;;;;;;;25.86;51.45;97451.58;615645;230;65830;-74
2023/01/05 04:53:37;;;;;;;;;;;;;;;25.84;51.35;97440.29;615704;230;68518;-73
2023/01/05 04:56:05;;;;;;;;;;;;;;;25.84;51.54;97453.75;615618;230;62371;-73
2023/01/05 04:58:35;;;;;;;;;;;;;;;25.84;50.81;97442.98;615494;230;49055;-74
2023/01/05 05:01:02;;;;;;;;;;;;;;;25.83;51.27;97440.53;615668;230;67996;-73
2023/01/05 05:03:31;;;;;;;;;;;;;;;25.83;51.25;97440.53;615648;230;65648;-73
2023/01/05 05:05:59;;;;;;;;;;;;;;;25.82;50.50;97441.64;615703;230;65923;-73
2023/01/05 05:08:29;;;;;;;;;;;;;;;25.81;50.95;97440.02;615645;230;68416;-73
2023/01/05 05:10:58;;;;;;;;;;;;;;;25.80;51.45;97436.53;615644;230;64840;-73
2023/01/05 05:13:26;;;;;;;;;;;;;;;25.79;51.43;97453.00;615636;230;69087;-73
2023/01/05 05:15:54;;;;;;;;;;;;;;;25.79;52.20;97448.41;615645;230;68302;-73
2023/01/05 05:18:21;;;;;;;;;;;;;;;25.78;51.59;97457.58;615691;230;62731;-73
2023/01/05 05:20:50;;;;;;;;;;;;;;;25.76;51.26;97459.77;615649;230;68877;-73
2023/01/05 05:23:18;;;;;;;;;;;;;;;25.76;50.31;97458.97;615600;230;65849;-73
2023/01/05 05:25:47;;;;;;;;;;;;;;;25.76;50.93;97456.27;615632;230;64963;-72
2023/01/05 05:28:15;;;;;;;;;;;;;;;25.76;51.52;97465.14;615700;230;68795;-72
2023/01/05 05:30:43;;;;;;;;;;;;;;;25.75;52.08;97471.60;615651;230;68355;-72
2023/01/05 05:33:10;;;;;;;;;;;;;;;25.75;52.42;97468.91;615689;230;64916;-72
2023/01/05 05:35:38;;;;;;;;;;;;;;;25.75;52.34;97466.22;615617;230;68361;-72
2023/01/05 05:38:05;;;;;;;;;;;;;;;25.74;52.40;97464.63;615701;230;65940;-72
2023/01/05 05:40:32;;;;;;;;;;;;;;;25.74;52.19;97469.22;615662;230;64650;-72
2023/01/05 05:43:00;;;;;;;;;;;;;;;25.73;50.17;97468.42;615638;230;68345;-72
2023/01/05 05:45:27;;;;;;;;;;;;;;;25.74;51.34;97466.53;615651;230;68549;-72
2023/01/05 05:47:55;;;;;;;;;;;;;;;25.74;53.48;97472.70;615671;230;65048;-72
2023/01/05 05:50:22;;;;;;;;;;;;;;;25.74;52.08;97469.22;615628;230;68319;-72
2023/01/05 05:52:50;;;;;;;;;;;;;;;25.73;51.64;97464.91;615622;230;68476;-72
2023/01/05 05:55:17;;;;;;;;;;;;;;;25.71;51.81;97457.14;615638;230;64879;-72
2023/01/05 05:57:45;;;;;;;;;;;;;;;25.72;52.53;97453.34;615692;230;68319;-72
2023/01/05 06:00:13;;;;;;;;;;;;;;;25.73;51.59;97454.14;615596;230;68530;-72
2023/01/05 06:02:40;;;;;;;;;;;;;;;25.72;51.92;97447.96;615500;230;65078;-71
2023/01/05 06:05:08;;;;;;;;;;;;;;;25.72;52.20;97453.34;615591;230;68284;-70
2023/01/05 06:07:36;;;;;;;;;;;;;;;25.72;50.96;97447.16;615594;230;68594;-70
2023/01/05 06:10:03;;;;;;;;;;;;;;;25.73;50.83;97446.89;615647;230;64891;-70
2023/01/05 06:12:31;;;;;;;;;;;;;;;25.72;52.18;97434.50;615592;230;68886;-70
2023/01/05 06:14:58;;;;;;;;;;;;;;;25.71;49.72;97430.22;615585;230;68455;-70
2023/01/05 06:17:26;;;;;;;;;;;;;;;25.72;51.43;97421.04;615586;230;66402;-70
2023/01/05 06:19:54;;;;;;;;;;;;;;;25.71;49.92;97419.45;615605;228;68682;-70
2023/01/05 06:22:22;;;;;;;;;;;;;;;25.73;51.47;97428.05;615633;230;66598;-70
2023/01/05 06:24:49;;;;;;;;;;;;;;;25.72;49.68;97421.04;615668;230;62741;-70
2023/01/05 06:27:17;;;;;;;;;;;;;;;25.72;52.07;97415.66;615618;228;68676;-70
2023/01/05 06:29:47;;;;;;;;;;;;;;;25.73;50.30;97405.69;616609;230;68542;-70
2023/01/05 06:32:14;;;;;;;;;;;;;;;25.73;50.63;97401.13;609883;230;64040;-70
2023/01/05 06:34:42;;;;;;;;;;;;;;;25.73;51.73;97403.81;616980;230;68666;-70
2023/01/05 06:37:11;;;;;;;;;;;;;;;25.73;52.09;97398.43;616917;230;49999;-70
2023/01/05 06:39:39;;;;;;;;;;;;;;;25.73;52.42;97390.36;617005;230;63643;-70
2023/01/05 06:42:06;;;;;;;;;;;;;;;25.73;51.66;97379.59;616983;230;68585;-72
2023/01/05 06:44:34;;;;;;;;;;;;;;;25.74;50.71;97375.00;616979;228;68585;-70
2023/01/05 06:47:01;;;;;;;;;;;;;;;25.75;51.89;97373.89;617009;230;65155;-70
2023/01/05 06:49:29;;;;;;;;;;;;;;;25.74;50.79;97370.41;617043;230;68774;-70
2023/01/05 06:51:56;;;;;;;;;;;;;;;25.75;51.18;97369.31;617038;230;66183;-70
2023/01/05 06:54:24;;;;;;;;;;;;;;;25.75;49.89;97355.84;617006;230;63776;-70
2023/01/05 06:56:51;;;;;;;;;;;;;;;25.76;50.25;97351.28;616989;230;68688;-71
2023/01/05 06:59:19;;;;;;;;;;;;;;;25.76;51.21;97352.08;616976;230;68858;-70
2023/01/05 07:01:46;;;;;;;;;;;;;;;25.76;50.98;97346.70;616953;230;62709;-70
2023/01/05 07:04:14;;;;;;;;;;;;;;;25.77;50.20;97350.98;616918;230;66384;-70
2023/01/05 07:06:41;;;;;;;;;;;;;;;25.78;50.77;97349.08;616996;230;68111;-70
2023/01/05 07:09:09;;;;;;;;;;;;;;;25.76;46.91;97348.59;616021;230;63523;-70
2023/01/05 07:11:36;;;;;;;;;;;;;;;25.78;49.89;97351.77;616004;230;68895;-68
2023/01/05 07:14:04;;;;;;;;;;;;;;;25.79;50.51;97356.08;615533;230;68727;-69
2023/01/05 07:16:31;;;;;;;;;;;;;;;25.79;51.17;97351.48;615458;230;64843;-73
2023/01/05 07:18:59;;;;;;;;;;;;;;;25.79;52.02;97343.41;615387;230;68278;-73
2023/01/05 07:21:26;;;;;;;;;;;;;;;25.81;51.20;97351.17;615550;230;68627;-73
2023/01/05 07:23:54;;;;;;;;;;;;;;;25.80;52.46;97347.69;615356;230;64994;-73
2023/01/05 07:26:21;;;;;;;;;;;;;;;25.81;53.70;97341.23;615567;230;68917;-71
2023/01/05 07:28:48;;;;;;;;;;;;;;;25.82;52.67;97345.52;614822;230;66471;-71
2023/01/05 07:31:16;;;;;;;;;;;;;;;25.83;52.48;97336.36;613470;231;65049;-74
2023/01/05 07:33:44;;;;;;;;;;;;;;;25.83;52.34;97339.05;613418;230;68787;-72
2023/01/05 07:36:12;;;;;;;;;;;;;;;25.84;52.54;97332.59;613773;231;68696;-73
2023/01/05 07:38:39;;;;;;;;;;;;;;;25.85;50.68;97334.18;613688;231;62923;-74
2023/01/05 07:41:07;;;;;;;;;;;;;;;25.86;51.72;97335.80;613871;231;68628;-74
2023/01/05 07:43:38;;;;;;;;;;;;;;;25.86;51.94;97335.80;613739;231;68748;-71
2023/01/05 07:46:05;;;;;;;;;;;;;;;25.89;48.89;97324.44;613725;231;65028;-71
2023/01/05 07:48:33;;;;;;;;;;;;;;;25.90;50.50;97320.64;613774;231;66556;-68
2023/01/05 07:51:01;;;;;;;;;;;;;;;25.90;50.13;97320.64;613769;231;66678;-67
2023/01/05 07:53:29;;;;;;;;;;;;;;;25.93;50.96;97323.84;613787;231;65048;-67
2023/01/05 07:55:57;;;;;;;;;;;;;;;25.94;51.79;97314.66;613754;231;68731;-67
2023/01/05 07:58:25;;;;;;;;;;;;;;;25.95;50.83;97313.58;613743;231;68486;-68
2023/01/05 08:00:52;;;;;;;;;;;;;;;25.97;51.07;97311.37;613802;231;65020;-71
2023/01/05 08:03:20;;;;;;;;;;;;;;;25.98;49.52;97311.09;613772;231;68844;-68
2023/01/05 08:05:48;;;;;;;;;;;;;;;26.00;51.23;97308.08;613747;231;68322;-67
2023/01/05 08:08:15;;;;;;;;;;;;;;;26.00;52.07;97297.30;613746;231;64968;-70
2023/01/05 08:10:43;;;;;;;;;;;;;;;26.02;50.48;97303.20;613699;231;68590;-67
2023/01/05 08:15:59;;;;;;;;;;;;;;;26.03;51.66;97289.45;613716;231;65129;-70
2023/01/05 08:18:27;;;;;;;;;;;;;;;26.05;50.61;97284.55;613082;231;69504;-70
2023/01/05 08:20:59;;;;;;;;;;;;;;;26.07;50.97;97286.95;612841;230;68717;-70
2023/01/05 08:23:27;;;;;;;;;;;;;;;26.09;51.52;97282.87;612813;231;62790;-69
2023/01/05 08:25:55;;;;;;;;;;;;;;;26.10;51.76;97281.77;612650;231;68777;-69
2023/01/05 08:28:25;;;;;;;;;;;;;;;26.11;51.13;97287.97;612829;231;68676;-68
2023/01/05 08:30:53;;;;;;;;;;;;;;;26.11;51.35;97277.20;613557;231;65045;-69
2023/01/05 08:33:20;;;;;;;;;;;;;;;26.13;50.04;97274.98;613524;231;68551;-69
2023/01/05 08:35:48;;;;;;;;;;;;;;;26.13;50.57;97269.59;613575;231;66674;-68
2023/01/05 08:38:15;;;;;;;;;;;;;;;26.15;49.99;97263.92;613475;231;62934;-68
2023/01/05 08:40:43;;;;;;;;;;;;;;;26.17;50.14;97261.73;613479;231;68904;-69
2023/01/05 08:43:10;;;;;;;;;;;;;;;26.18;49.89;97260.62;613471;231;68695;-74
2023/01/05 08:45:38;;;;;;;;;;;;;;;26.19;50.14;97256.83;613507;231;64998;-68
2023/01/05 08:48:05;;;;;;;;;;;;;;;26.24;45.87;97254.83;613521;231;66404;-66
2023/01/05 08:50:33;;;;;;;;;;;;;;;26.26;49.15;97247.26;613478;231;68710;-69
2023/01/05 08:53:00;;;;;;;;;;;;;;;26.24;49.17;97243.27;613435;231;64878;-68
2023/01/05 08:55:28;;;;;;;;;;;;;;;26.23;48.51;97242.47;613528;231;66324;-69
2023/01/05 08:57:56;;;;;;;;;;;;;;;26.22;49.33;97235.50;613537;231;68419;-69
2023/01/05 09:00:23;;;;;;;;;;;;;;;26.23;48.77;97237.08;613453;231;62973;-68
2023/01/05 09:02:51;;;;;;;;;;;;;;;26.23;48.23;97234.39;613502;231;66252;-69
2023/01/05 09:05:18;;;;;;;;;;;;;;;26.23;47.94;97223.61;613525;231;68475;-69
2023/01/05 09:07:46;;;;;;;;;;;;;;;26.25;47.26;97218.73;613493;231;62832;-68
2023/01/05 09:10:13;;;;;;;;;;;;;;;26.27;43.81;97211.16;613505;231;66339;-68
2023/01/05 09:12:41;;;;;;;;;;;;;;;26.27;46.80;97208.46;613543;231;68406;-69
2023/01/05 09:15:09;;;;;;;;;;;;;;;26.28;48.49;97207.35;613528;231;62934;-71
2023/01/05 09:17:37;;;;;;;;;;;;;;;26.28;48.94;97195.78;613443;231;68505;-71
2023/01/05 09:20:06;;;;;;;;;;;;;;;26.27;49.15;97194.99;613526;231;68425;-69
2023/01/05 09:22:34;;;;;;;;;;;;;;;26.29;48.81;97186.59;613416;231;62900;-69
2023/01/05 09:25:03;;;;;;;;;;;;;;;26.27;49.38;97173.44;613465;231;68841;-69
2023/01/05 09:27:31;;;;;;;;;;;;;;;26.27;48.59;97168.05;613418;231;69014;-69
2023/01/05 09:29:58;;;;;;;;;;;;;;;26.29;46.17;97176.61;613408;231;65135;-68
2023/01/05 09:32:26;;;;;;;;;;;;;;;26.29;49.38;97165.03;613431;231;68802;-69
2023/01/05 09:34:54;;;;;;;;;;;;;;;26.28;50.73;97158.86;613520;231;66524;-75
2023/01/05 09:37:21;;;;;;;;;;;;;;;26.28;47.46;97158.86;613434;231;62789;-70
2023/01/05 09:39:49;;;;;;;;;;;;;;;26.31;46.38;97157.45;613482;231;68791;-70
2023/01/05 09:42:18;;;;;;;;;;;;;;;26.32;47.64;97154.45;613465;231;68493;-69
2023/01/05 09:44:50;;;;;;;;;;;;;;;26.33;47.25;97147.19;613454;231;65037;-71
2023/01/05 09:47:25;;;;;;;;;;;;;;;26.32;47.61;97140.18;613187;231;68321;-70
2023/01/05 09:49:53;;;;;;;;;;;;;;;26.32;48.60;97130.20;613492;231;68670;-71
2023/01/05 09:52:22;;;;;;;;;;;;;;;26.32;48.48;97124.81;613404;231;62962;-71
2023/01/05 09:54:49;;;;;;;;;;;;;;;26.33;48.67;97118.34;613527;231;66873;-68
2023/01/05 09:57:21;;;;;;;;;;;;;;;26.33;47.35;97115.64;613441;231;66495;-71
2023/01/05 09:59:50;;;;;;;;;;;;;;;26.34;47.70;97102.97;613178;231;65020;-71
2023/01/05 10:02:22;;;;;;;;;;;;;;;26.35;48.06;97094.59;613327;230;68850;-70
2023/01/05 10:04:51;;;;;;;;;;;;;;;26.35;48.39;97091.90;607637;231;68555;-70
2023/01/05 10:07:31;;;;;;;;;;;;;;;26.37;48.57;97085.39;613489;230;62652;-71
2023/01/05 10:10:01;;;;;;;;;;;;;;;26.37;48.62;97080.01;613488;231;66597;-69
2023/01/05 10:15:21;;;;;;;;;;;;;;;26.35;48.55;97086.51;596790;237;62532;-69
2023/01/05 10:17:48;;;;;;;;;;;;;;;26.37;48.54;97080.01;608417;231;68853;-69
2023/01/05 10:20:20;;;;;;;;;;;;;;;26.35;48.93;97080.30;613515;231;68772;-70
2023/01/05 10:22:52;;;;;;;;;;;;;;;26.37;48.45;97080.01;613193;231;63833;-68
2023/01/05 10:25:21;;;;;;;;;;;;;;;26.36;48.27;97079.22;613290;231;68664;-68
2023/01/05 10:27:51;;;;;;;;;;;;;;;26.37;49.27;97074.62;613461;231;68532;-68
2023/01/05 10:30:23;;;;;;;;;;;;;;;26.36;49.35;97073.83;614010;231;62781;-69
2023/01/05 10:32:58;;;;;;;;;;;;;;;26.37;49.52;97067.33;614018;231;68936;-71
2023/01/05 10:35:36;;;;;;;;;;;;;;;26.35;49.43;97062.27;614124;231;68443;-68
2023/01/05 10:38:11;;;;;;;;;;;;;;;26.35;48.13;97058.75;613854;230;62742;-68
2023/01/05 10:40:44;;;;;;;;;;;;;;;26.35;48.92;97054.17;614005;231;68826;-69
2023/01/05 10:43:22;;;;;;;;;;;;;;;26.37;48.93;97047.67;614018;231;66889;-69
2023/01/05 10:45:49;;;;;;;;;;;;;;;26.37;48.70;97044.98;614051;231;65005;-69
2023/01/05 10:48:22;;;;;;;;;;;;;;;26.35;48.59;97032.62;614008;231;66662;-69
2023/01/05 10:50:50;;;;;;;;;;;;;;;26.36;49.46;97041.50;614017;230;68691;-69
2023/01/05 10:53:19;;;;;;;;;;;;;;;26.35;48.46;97029.92;614066;231;62561;-70
2023/01/05 10:55:48;;;;;;;;;;;;;;;26.35;48.77;97024.54;613975;231;66771;-69
2023/01/05 10:58:26;;;;;;;;;;;;;;;26.34;45.45;97020.23;613997;230;68391;-69
2023/01/05 11:00:55;;;;;;;;;;;;;;;26.36;47.93;97014.55;614072;231;63069;-69
2023/01/05 11:03:24;;;;;;;;;;;;;;;26.34;48.20;97017.54;614017;231;68589;-68
2023/01/05 11:05:51;;;;;;;;;;;;;;;26.33;48.64;97002.48;613996;230;66682;-68
2023/01/05 11:08:20;;;;;;;;;;;;;;;26.32;48.26;97003.57;614023;231;62929;-68
2023/01/05 11:10:49;;;;;;;;;;;;;;;26.31;47.75;97001.99;614014;231;66822;-76
2023/01/05 11:13:18;;;;;;;;;;;;;;;26.31;48.47;96993.91;613994;231;68513;-69
2023/01/05 11:15:47;;;;;;;;;;;;;;;26.31;49.39;96990.42;614023;231;62760;-69
2023/01/05 11:18:19;;;;;;;;;;;;;;;26.30;49.73;96994.20;613687;231;66563;-70
2023/01/05 11:21:04;;;;;;;;;;;;;;;26.30;49.63;96996.89;613918;231;69474;-68
2023/01/05 11:23:37;;;;;;;;;;;;;;;26.28;48.71;96997.22;613978;231;65074;-69
2023/01/05 11:26:21;;;;;;;;;;;;;;;26.26;48.22;96996.72;613740;230;66662;-71
2023/01/05 11:29:07;;;;;;;;;;;;;;;26.26;49.67;96994.02;613782;231;68479;-68
2023/01/05 11:31:41;;;;;;;;;;;;;;;26.25;49.58;97005.91;613440;231;63142;-69
2023/01/05 11:34:10;;;;;;;;;;;;;;;26.23;49.07;96993.85;613430;231;69071;-68
2023/01/05 11:36:38;;;;;;;;;;;;;;;26.22;48.52;96992.23;606627;231;66368;-69
2023/01/05 11:39:05;;;;;;;;;;;;;;;26.22;48.50;96986.85;613433;231;62750;-72
2023/01/05 11:41:33;;;;;;;;;;;;;;;26.22;49.50;96981.46;613446;231;68829;-69
2023/01/05 11:44:02;;;;;;;;;;;;;;;26.20;48.88;96973.70;613465;231;68544;-69
2023/01/05 11:46:31;;;;;;;;;;;;;;;26.21;47.24;96969.11;613365;231;63006;-69
2023/01/05 11:48:58;;;;;;;;;;;;;;;26.21;49.24;96972.59;613164;231;66610;-69
2023/01/05 11:51:34;;;;;;;;;;;;;;;26.20;50.84;96965.63;613521;231;66272;-69
2023/01/05 11:54:01;;;;;;;;;;;;;;;26.20;49.40;96970.22;613112;231;65119;-69
2023/01/05 11:56:29;;;;;;;;;;;;;;;26.19;49.98;96964.05;613489;231;68831;-71
2023/01/05 11:58:57;;;;;;;;;;;;;;;26.19;48.33;96955.97;613404;231;68869;-72
2023/01/05 12:01:26;;;;;;;;;;;;;;;26.18;48.89;96950.88;613471;231;64903;-72
2023/01/05 12:04:02;;;;;;;;;;;;;;;26.18;47.67;96951.66;606629;231;68686;-68
2023/01/05 12:06:50;;;;;;;;;;;;;;;26.18;49.66;96953.56;613390;231;68592;-70
2023/01/05 12:09:34;;;;;;;;;;;;;;;26.16;44.16;96959.25;613486;231;62892;-71
2023/01/05 12:12:20;;;;;;;;;;;;;;;26.16;48.31;96961.94;613514;231;66597;-78
2023/01/05 12:15:01;;;;;;;;;;;;;;;26.16;50.61;96961.94;613414;231;68504;-69
2023/01/05 12:17:33;;;;;;;;;;;;;;;26.15;51.30;96954.97;613470;231;65102;-68
2023/01/05 12:20:08;;;;;;;;;;;;;;;26.12;50.74;96967.14;613459;231;66089;-69
2023/01/05 12:22:44;;;;;;;;;;;;;;;26.12;50.95;96960.97;613343;231;68706;-71
2023/01/05 12:25:22;;;;;;;;;;;;;;;26.10;44.99;96955.88;613512;231;62980;-72
2023/01/05 12:28:00;;;;;;;;;;;;;;;26.15;49.55;96971.12;612971;230;69065;-70
2023/01/05 12:30:48;;;;;;;;;;;;;;;26.17;48.58;97000.47;602926;235;66551;-71
2023/01/05 12:33:23;;;;;;;;;;;;;;;26.17;49.64;96974.33;603269;235;65399;-70
2023/01/05 12:35:55;;;;;;;;;;;;;;;26.17;48.88;96963.55;603019;235;66535;-69
2023/01/05 12:38:26;;;;;;;;;;;;;;;26.16;48.97;96956.55;603056;235;73645;-70
2023/01/05 12:41:11;;;;;;;;;;;;;;;26.16;49.38;96937.70;603300;235;65168;-70
2023/01/05 12:43:40;;;;;;;;;;;;;;;26.15;48.57;96929.94;602912;235;68716;-70
2023/01/05 12:46:10;;;;;;;;;;;;;;;26.15;48.76;96930.73;602544;235;68950;-69
2023/01/05 12:48:39;;;;;;;;;;;;;;;26.15;48.76;96930.73;603332;235;64828;-69
2023/01/05 12:51:19;;;;;;;;;;;;;;;26.15;49.07;96913.78;603196;235;68810;-69
2023/01/05 12:53:48;;;;;;;;;;;;;;;26.14;49.05;96921.07;603354;235;68449;-70
2023/01/05 12:56:18;;;;;;;;;;;;;;;26.11;43.60;96916.30;603213;235;62793;-68
2023/01/05 12:58:53;;;;;;;;;;;;;;;26.13;45.80;96936.41;603323;235;66433;-69
2023/01/05 13:01:21;;;;;;;;;;;;;;;26.16;48.46;96937.70;603102;235;68574;-70
2023/01/05 13:03:51;;;;;;;;;;;;;;;26.15;48.67;96922.65;603336;235;64801;-70
2023/01/05 13:06:21;;;;;;;;;;;;;;;26.13;49.04;96925.64;603221;235;48931;-70
2023/01/05 13:08:59;;;;;;;;;;;;;;;26.15;50.09;96929.94;603409;235;68068;-70
2023/01/05 13:11:37;;;;;;;;;;;;;;;26.14;49.05;96926.45;603348;235;64885;-68
2023/01/05 13:14:12;;;;;;;;;;;;;;;26.17;49.80;96930.44;603406;232;66147;-70
2023/01/05 13:16:41;;;;;;;;;;;;;;;26.16;48.92;96929.62;603185;235;68395;-70
2023/01/05 13:19:22;;;;;;;;;;;;;;;26.16;49.89;96934.21;603325;235;64916;-67
2023/01/05 13:21:51;;;;;;;;;;;;;;;26.16;49.24;96937.70;603304;235;66711;-69
2023/01/05 13:24:29;;;;;;;;;;;;;;;26.17;49.59;96935.83;603318;235;66209;-78
2023/01/05 13:26:58;;;;;;;;;;;;;;;26.16;49.41;96937.70;603271;235;65867;-73
2023/01/05 13:29:27;;;;;;;;;;;;;;;26.17;49.99;96939.31;609905;231;66579;-69
2023/01/05 13:32:05;;;;;;;;;;;;;;;26.20;47.65;96933.30;614054;231;68542;-70
2023/01/05 13:34:34;;;;;;;;;;;;;;;26.22;49.58;96941.06;613872;230;64852;-74
2023/01/05 13:37:04;;;;;;;;;;;;;;;26.22;48.77;96935.67;614072;231;68550;-71